sensor_id;sensor_type;location;lat;lon;timestamp;pressure;altitude;pressure_sealevel;temperature;humidity
21588;BME280;10956;48.878;13.316;2023-01-26T00:00:03;94502.91;;;-0.57;100.00
21588;BME280;10956;48.878;13.316;2023-01-26T00:02:28;94500.91;;;-0.55;100.00
21588;BME280;10956;48.878;13.316;2023-01-26T00:04:54;94496.91;;;-0.57;100.00
21588;BME280;10956;48.878;13.316;2023-01-26T00:07:19;94494.56;;;-0.52;100.00
21588;BME280;10956;48.878;13.316;2023-01-26T00:09:45;94484.22;;;-0.52;100.00
21588;BME280;10956;48.878;13.316;2023-01-26T00:12:10;94494.00;;;-0.48;100.00
21588;BME280;10956;48.878;13.316;2023-01-26T00:14:35;94487.41;;;-0.50;100.00
21588;BME280;10956;48.878;13.316;2023-01-26T00:17:15;94482.97;;;-0.56;100.00
21588;BME280;10956;48.878;13.316;2023-01-26T00:19:40;94483.69;;;-0.69;100.00
21588;BME280;10956;48.878;13.316;2023-01-26T00:22:06;94481.34;;;-0.64;100.00
21588;BME280;10956;48.878;13.316;2023-01-26T00:24:31;94484.78;;;-0.57;100.00
21588;BME280;10956;48.878;13.316;2023-01-26T00:26:57;94481.44;;;-0.51;100.00
21588;BME280;10956;48.878;13.316;2023-01-26T00:29:22;94474.66;;;-0.52;100.00
21588;BME280;10956;48.878;13.316;2023-01-26T00:31:47;94472.06;;;-0.52;100.00
21588;BME280;10956;48.878;13.316;2023-01-26T00:34:13;94466.69;;;-0.50;100.00
21588;BME280;10956;48.878;13.316;2023-01-26T00:36:38;94470.69;;;-0.48;100.00
21588;BME280;10956;48.878;13.316;2023-01-26T00:39:03;94463.53;;;-0.46;100.00
21588;BME280;10956;48.878;13.316;2023-01-26T00:41:29;94470.72;;;-0.41;100.00
21588;BME280;10956;48.878;13.316;2023-01-26T00:44:13;94467.56;;;-0.37;100.00
21588;BME280;10956;48.878;13.316;2023-01-26T00:46:38;94462.00;;;-0.34;100.00
21588;BME280;10956;48.878;13.316;2023-01-26T00:49:04;94472.38;;;-0.27;100.00
21588;BME280;10956;48.878;13.316;2023-01-26T00:51:29;94470.00;;;-0.28;100.00
21588;BME280;10956;48.878;13.316;2023-01-26T00:53:54;94471.59;;;-0.27;100.00
21588;BME280;10956;48.878;13.316;2023-01-26T00:56:21;94466.41;;;-0.27;100.00
21588;BME280;10956;48.878;13.316;2023-01-26T00:58:46;94474.38;;;-0.29;100.00
21588;BME280;10956;48.878;13.316;2023-01-26T01:01:12;94467.59;;;-0.30;100.00
21588;BME280;10956;48.878;13.316;2023-01-26T01:03:37;94467.41;;;-0.28;100.00
21588;BME280;10956;48.878;13.316;2023-01-26T01:06:03;94473.38;;;-0.28;100.00
21588;BME280;10956;48.878;13.316;2023-01-26T01:08:28;94469.59;;;-0.25;100.00
21588;BME280;10956;48.878;13.316;2023-01-26T01:11:04;94459.47;;;-0.20;100.00
21588;BME280;10956;48.878;13.316;2023-01-26T01:13:30;94455.28;;;-0.21;100.00
21588;BME280;10956;48.878;13.316;2023-01-26T01:15:56;94456.88;;;-0.20;100.00
21588;BME280;10956;48.878;13.316;2023-01-26T01:18:21;94457.69;;;-0.20;100.00
21588;BME280;10956;48.878;13.316;2023-01-26T01:20:47;94462.44;;;-0.23;100.00
21588;BME280;10956;48.878;13.316;2023-01-26T01:23:12;94461.03;;;-0.26;100.00
21588;BME280;10956;48.878;13.316;2023-01-26T01:25:38;94459.63;;;-0.28;100.00
21588;BME280;10956;48.878;13.316;2023-01-26T01:28:03;94457.25;;;-0.23;100.00
21588;BME280;10956;48.878;13.316;2023-01-26T01:30:29;94455.69;;;-0.18;100.00
21588;BME280;10956;48.878;13.316;2023-01-26T01:32:54;94462.44;;;-0.23;100.00
21588;BME280;10956;48.878;13.316;2023-01-26T01:35:19;94462.81;;;-0.26;100.00
21588;BME280;10956;48.878;13.316;2023-01-26T01:37:45;94452.66;;;-0.28;100.00
21588;BME280;10956;48.878;13.316;2023-01-26T01:40:11;94451.47;;;-0.25;100.00
21588;BME280;10956;48.878;13.316;2023-01-26T01:42:37;94445.31;;;-0.24;100.00
21588;BME280;10956;48.878;13.316;2023-01-26T01:45:42;94447.09;;;-0.25;100.00
21588;BME280;10956;48.878;13.316;2023-01-26T01:48:16;94451.09;;;-0.22;100.00
21588;BME280;10956;48.878;13.316;2023-01-26T01:50:42;94452.03;;;-0.37;100.00
21588;BME280;10956;48.878;13.316;2023-01-26T01:53:12;94451.41;;;-0.39;100.00
21588;BME280;10956;48.878;13.316;2023-01-26T01:55:40;94446.06;;;-0.37;100.00
21588;BME280;10956;48.878;13.316;2023-01-26T01:58:07;94449.81;;;-0.40;100.00
21588;BME280;10956;48.878;13.316;2023-01-26T02:00:33;94445.66;;;-0.34;100.00
21588;BME280;10956;48.878;13.316;2023-01-26T02:03:01;94443.66;;;-0.39;100.00
21588;BME280;10956;48.878;13.316;2023-01-26T02:06:23;94440.41;;;-0.47;100.00
21588;BME280;10956;48.878;13.316;2023-01-26T02:08:53;94434.03;;;-0.51;100.00
21588;BME280;10956;48.878;13.316;2023-01-26T02:11:28;94434.44;;;-0.48;100.00
21588;BME280;10956;48.878;13.316;2023-01-26T02:13:56;94434.44;;;-0.48;100.00
21588;BME280;10956;48.878;13.316;2023-01-26T02:16:23;94432.47;;;-0.46;100.00
21588;BME280;10956;48.878;13.316;2023-01-26T02:18:48;94429.88;;;-0.46;100.00
21588;BME280;10956;48.878;13.316;2023-01-26T02:21:16;94426.91;;;-0.43;100.00
21588;BME280;10956;48.878;13.316;2023-01-26T02:26:15;94418.16;;;-0.42;100.00
21588;BME280;10956;48.878;13.316;2023-01-26T02:28:42;94420.94;;;-0.37;100.00
21588;BME280;10956;48.878;13.316;2023-01-26T02:31:09;94418.59;;;-0.31;100.00
21588;BME280;10956;48.878;13.316;2023-01-26T02:33:35;94416.59;;;-0.29;100.00
21588;BME280;10956;48.878;13.316;2023-01-26T02:36:01;94412.56;;;-0.39;100.00
21588;BME280;10956;48.878;13.316;2023-01-26T02:38:38;94415.34;;;-0.47;100.00
21588;BME280;10956;48.878;13.316;2023-01-26T02:41:10;94414.88;;;-0.57;100.00
21588;BME280;10956;48.878;13.316;2023-01-26T02:43:36;94407.09;;;-0.63;100.00
21588;BME280;10956;48.878;13.316;2023-01-26T02:46:02;94406.09;;;-0.62;100.00
21588;BME280;10956;48.878;13.316;2023-01-26T02:48:28;94406.91;;;-0.62;100.00
21588;BME280;10956;48.878;13.316;2023-01-26T02:51:12;94405.28;;;-0.63;100.00
21588;BME280;10956;48.878;13.316;2023-01-26T02:53:37;94405.28;;;-0.63;100.00
21588;BME280;10956;48.878;13.316;2023-01-26T02:56:03;94400.53;;;-0.59;100.00
21588;BME280;10956;48.878;13.316;2023-01-26T02:58:28;94396.53;;;-0.62;100.00
21588;BME280;10956;48.878;13.316;2023-01-26T03:00:54;94396.53;;;-0.62;100.00
21588;BME280;10956;48.878;13.316;2023-01-26T03:03:23;94392.53;;;-0.71;100.00
21588;BME280;10956;48.878;13.316;2023-01-26T03:05:49;94393.28;;;-0.77;100.00
21588;BME280;10956;48.878;13.316;2023-01-26T03:08:15;94395.63;;;-0.82;100.00
21588;BME280;10956;48.878;13.316;2023-01-26T03:10:40;94389.06;;;-0.85;100.00
21588;BME280;10956;48.878;13.316;2023-01-26T03:13:06;94386.50;;;-0.78;100.00
21588;BME280;10956;48.878;13.316;2023-01-26T03:15:32;94381.13;;;-0.77;100.00
21588;BME280;10956;48.878;13.316;2023-01-26T03:18:17;94394.88;;;-0.76;100.00
21588;BME280;10956;48.878;13.316;2023-01-26T03:21:09;94392.91;;;-0.74;100.00
21588;BME280;10956;48.878;13.316;2023-01-26T03:23:54;94389.69;;;-0.76;100.00
21588;BME280;10956;48.878;13.316;2023-01-26T03:26:38;94390.84;;;-0.85;100.00
21588;BME280;10956;48.878;13.316;2023-01-26T03:29:23;94389.28;;;-0.80;100.00
21588;BME280;10956;48.878;13.316;2023-01-26T03:31:51;94382.69;;;-0.82;100.00
21588;BME280;10956;48.878;13.316;2023-01-26T03:34:16;94377.75;;;-0.77;100.00
21588;BME280;10956;48.878;13.316;2023-01-26T03:36:42;94376.59;;;-0.68;100.00
21588;BME280;10956;48.878;13.316;2023-01-26T03:39:07;94378.22;;;-0.67;100.00
21588;BME280;10956;48.878;13.316;2023-01-26T03:41:33;94384.19;;;-0.67;100.00
21588;BME280;10956;48.878;13.316;2023-01-26T03:44:16;94374.78;;;-0.74;100.00
21588;BME280;10956;48.878;13.316;2023-01-26T03:47:00;94371.00;;;-0.72;100.00
21588;BME280;10956;48.878;13.316;2023-01-26T03:49:44;94369.03;;;-0.70;100.00
21588;BME280;10956;48.878;13.316;2023-01-26T03:52:31;94365.47;;;-0.69;100.00
21588;BME280;10956;48.878;13.316;2023-01-26T03:55:15;94362.28;;;-0.64;100.00
21588;BME280;10956;48.878;13.316;2023-01-26T03:58:00;94363.50;;;-0.60;100.00
21588;BME280;10956;48.878;13.316;2023-01-26T04:00:25;94362.31;;;-0.57;100.00
21588;BME280;10956;48.878;13.316;2023-01-26T04:02:50;94358.34;;;-0.53;100.00
21588;BME280;10956;48.878;13.316;2023-01-26T04:05:34;94363.13;;;-0.57;100.00
21588;BME280;10956;48.878;13.316;2023-01-26T04:08:18;94361.53;;;-0.58;100.00
21588;BME280;10956;48.878;13.316;2023-01-26T04:10:48;94366.31;;;-0.55;100.00
21588;BME280;10956;48.878;13.316;2023-01-26T04:13:15;94358.75;;;-0.50;100.00
21588;BME280;10956;48.878;13.316;2023-01-26T04:15:59;94358.75;;;-0.50;100.00
21588;BME280;10956;48.878;13.316;2023-01-26T04:18:43;94355.19;;;-0.49;100.00
21588;BME280;10956;48.878;13.316;2023-01-26T04:21:27;94358.75;;;-0.50;100.00
21588;BME280;10956;48.878;13.316;2023-01-26T04:23:54;94343.22;;;-0.50;100.00
21588;BME280;10956;48.878;13.316;2023-01-26T04:26:22;94345.63;;;-0.48;100.00
21588;BME280;10956;48.878;13.316;2023-01-26T04:28:48;94340.84;;;-0.51;100.00
21588;BME280;10956;48.878;13.316;2023-01-26T04:31:13;94339.63;;;-0.55;100.00
21588;BME280;10956;48.878;13.316;2023-01-26T04:33:40;94340.44;;;-0.55;100.00
21588;BME280;10956;48.878;13.316;2023-01-26T04:36:07;94341.63;;;-0.51;100.00
21588;BME280;10956;48.878;13.316;2023-01-26T04:38:34;94334.09;;;-0.46;100.00
21588;BME280;10956;48.878;13.316;2023-01-26T04:40:59;94335.50;;;-0.43;100.00
21588;BME280;10956;48.878;13.316;2023-01-26T04:43:25;94333.50;;;-0.41;100.00
21588;BME280;10956;48.878;13.316;2023-01-26T04:48:23;94324.28;;;-0.57;100.00
21588;BME280;10956;48.878;13.316;2023-01-26T04:51:18;94332.06;;;-0.57;100.00
21588;BME280;10956;48.878;13.316;2023-01-26T04:53:44;94324.50;;;-0.52;100.00
21588;BME280;10956;48.878;13.316;2023-01-26T04:56:18;94328.50;;;-0.49;100.00
21588;BME280;10956;48.878;13.316;2023-01-26T04:58:44;94334.09;;;-0.46;100.00
21588;BME280;10956;48.878;13.316;2023-01-26T05:01:09;94324.94;;;-0.42;100.00
21588;BME280;10956;48.878;13.316;2023-01-26T05:03:35;94328.53;;;-0.43;100.00
21588;BME280;10956;48.878;13.316;2023-01-26T05:06:00;94325.53;;;-0.40;100.00
21588;BME280;10956;48.878;13.316;2023-01-26T05:08:25;94325.16;;;-0.37;100.00
21588;BME280;10956;48.878;13.316;2023-01-26T05:10:51;94332.91;;;-0.37;100.00
21588;BME280;10956;48.878;13.316;2023-01-26T05:13:16;94324.13;;;-0.42;100.00
21588;BME280;10956;48.878;13.316;2023-01-26T05:15:42;94328.91;;;-0.46;100.00
21588;BME280;10956;48.878;13.316;2023-01-26T05:18:08;94333.69;;;-0.43;100.00
21588;BME280;10956;48.878;13.316;2023-01-26T05:20:34;94333.31;;;-0.40;100.00
21588;BME280;10956;48.878;13.316;2023-01-26T05:23:00;94336.47;;;-0.44;100.00
21588;BME280;10956;48.878;13.316;2023-01-26T05:25:25;94335.28;;;-0.42;100.00
21588;BME280;10956;48.878;13.316;2023-01-26T05:27:51;94333.31;;;-0.40;100.00
21588;BME280;10956;48.878;13.316;2023-01-26T05:30:17;94338.09;;;-0.37;100.00
21588;BME280;10956;48.878;13.316;2023-01-26T05:32:43;94327.34;;;-0.40;100.00
21588;BME280;10956;48.878;13.316;2023-01-26T05:35:09;94318.16;;;-0.43;100.00
21588;BME280;10956;48.878;13.316;2023-01-26T05:37:34;94320.56;;;-0.41;100.00
21588;BME280;10956;48.878;13.316;2023-01-26T05:40:00;94326.53;;;-0.41;100.00
21588;BME280;10956;48.878;13.316;2023-01-26T05:42:26;94329.72;;;-0.39;100.00
21588;BME280;10956;48.878;13.316;2023-01-26T05:44:52;94324.53;;;-0.39;100.00
21588;BME280;10956;48.878;13.316;2023-01-26T05:47:17;94323.53;;;-0.44;100.00
21588;BME280;10956;48.878;13.316;2023-01-26T05:49:43;94327.13;;;-0.45;100.00
21588;BME280;10956;48.878;13.316;2023-01-26T05:52:20;94321.75;;;-0.44;100.00
21588;BME280;10956;48.878;13.316;2023-01-26T05:54:46;94318.16;;;-0.43;100.00
21588;BME280;10956;48.878;13.316;2023-01-26T05:57:12;94314.38;;;-0.40;100.00
21588;BME280;10956;48.878;13.316;2023-01-26T05:59:38;94323.16;;;-0.35;100.00
21588;BME280;10956;48.878;13.316;2023-01-26T06:02:03;94320.19;;;-0.31;100.00
21588;BME280;10956;48.878;13.316;2023-01-26T06:04:29;94319.38;;;-0.32;100.00
21588;BME280;10956;48.878;13.316;2023-01-26T06:06:56;94323.34;;;-0.43;100.00
21588;BME280;10956;48.878;13.316;2023-01-26T06:09:22;94321.75;;;-0.44;100.00
21588;BME280;10956;48.878;13.316;2023-01-26T06:11:48;94325.13;;;-0.43;100.00
21588;BME280;10956;48.878;13.316;2023-01-26T06:14:13;94326.91;;;-0.44;100.00
21588;BME280;10956;48.878;13.316;2023-01-26T06:16:39;94327.53;;;-0.42;100.00
21588;BME280;10956;48.878;13.316;2023-01-26T06:19:05;94328.13;;;-0.40;100.00
21588;BME280;10956;48.878;13.316;2023-01-26T06:21:31;94323.94;;;-0.41;100.00
21588;BME280;10956;48.878;13.316;2023-01-26T06:23:57;94327.75;;;-0.37;100.00
21588;BME280;10956;48.878;13.316;2023-01-26T06:26:22;94326.16;;;-0.38;100.00
21588;BME280;10956;48.878;13.316;2023-01-26T06:28:51;94328.75;;;-0.31;100.00
21588;BME280;10956;48.878;13.316;2023-01-26T06:31:17;94323.75;;;-0.32;100.00
21588;BME280;10956;48.878;13.316;2023-01-26T06:33:43;94331.53;;;-0.32;100.00
21588;BME280;10956;48.878;13.316;2023-01-26T06:36:10;94337.72;;;-0.34;100.00
21588;BME280;10956;48.878;13.316;2023-01-26T06:38:43;94325.16;;;-0.37;100.00
21588;BME280;10956;48.878;13.316;2023-01-26T06:41:09;94329.53;;;-0.37;100.00
21588;BME280;10956;48.878;13.316;2023-01-26T06:43:35;94332.09;;;-0.44;100.00
21588;BME280;10956;48.878;13.316;2023-01-26T06:46:01;94325.31;;;-0.45;100.00
21588;BME280;10956;48.878;13.316;2023-01-26T06:48:29;94315.97;;;-0.46;100.00
21588;BME280;10956;48.878;13.316;2023-01-26T06:53:50;94318.56;;;-0.46;100.00
21588;BME280;10956;48.878;13.316;2023-01-26T06:56:16;94326.72;;;-0.49;100.00
21588;BME280;10956;48.878;13.316;2023-01-26T06:58:41;94325.31;;;-0.51;100.00
21588;BME280;10956;48.878;13.316;2023-01-26T07:01:21;94320.53;;;-0.48;100.00
21588;BME280;10956;48.878;13.316;2023-01-26T07:03:47;94314.75;;;-0.50;100.00
21588;BME280;10956;48.878;13.316;2023-01-26T07:06:13;94317.34;;;-0.50;100.00
21588;BME280;10956;48.878;13.316;2023-01-26T07:08:38;94313.38;;;-0.46;100.00
21588;BME280;10956;48.878;13.316;2023-01-26T07:11:05;94315.00;;;-0.38;100.00
21588;BME280;10956;48.878;13.316;2023-01-26T07:13:30;94315.78;;;-0.38;100.00
21588;BME280;10956;48.878;13.316;2023-01-26T07:16:00;94312.78;;;-0.41;100.00
21588;BME280;10956;48.878;13.316;2023-01-26T07:18:26;94317.78;;;-0.40;100.00
21588;BME280;10956;48.878;13.316;2023-01-26T07:20:51;94317.78;;;-0.40;100.00
21588;BME280;10956;48.878;13.316;2023-01-26T07:23:17;94321.34;;;-0.41;100.00
21588;BME280;10956;48.878;13.316;2023-01-26T07:25:42;94319.75;;;-0.42;100.00
21588;BME280;10956;48.878;13.316;2023-01-26T07:28:08;94322.53;;;-0.43;100.00
21588;BME280;10956;48.878;13.316;2023-01-26T07:30:35;94313.38;;;-0.39;100.00
21588;BME280;10956;48.878;13.316;2023-01-26T07:33:00;94320.38;;;-0.40;100.00
21588;BME280;10956;48.878;13.316;2023-01-26T07:35:26;94318.16;;;-0.43;100.00
21588;BME280;10956;48.878;13.316;2023-01-26T07:37:51;94312.97;;;-0.43;100.00
21588;BME280;10956;48.878;13.316;2023-01-26T07:40:16;94313.59;;;-0.41;100.00
21588;BME280;10956;48.878;13.316;2023-01-26T07:42:42;94315.38;;;-0.41;100.00
21588;BME280;10956;48.878;13.316;2023-01-26T07:45:07;94316.97;;;-0.40;100.00
21588;BME280;10956;48.878;13.316;2023-01-26T07:47:33;94317.78;;;-0.40;100.00
21588;BME280;10956;48.878;13.316;2023-01-26T07:50:00;94317.56;;;-0.45;100.00
21588;BME280;10956;48.878;13.316;2023-01-26T07:52:25;94314.59;;;-0.42;100.00
21588;BME280;10956;48.878;13.316;2023-01-26T07:54:51;94307.59;;;-0.41;100.00
21588;BME280;10956;48.878;13.316;2023-01-26T07:57:16;94312.97;;;-0.43;100.00
21588;BME280;10956;48.878;13.316;2023-01-26T07:59:41;94318.97;;;-0.42;100.00
21588;BME280;10956;48.878;13.316;2023-01-26T08:02:09;94311.38;;;-0.44;100.00
21588;BME280;10956;48.878;13.316;2023-01-26T08:04:34;94312.97;;;-0.43;100.00
21588;BME280;10956;48.878;13.316;2023-01-26T08:07:00;94314.97;;;-0.45;100.00
21588;BME280;10956;48.878;13.316;2023-01-26T08:09:25;94312.19;;;-0.43;100.00
21588;BME280;10956;48.878;13.316;2023-01-26T08:11:51;94306.22;;;-0.44;100.00
21588;BME280;10956;48.878;13.316;2023-01-26T08:14:16;94309.78;;;-0.45;100.00
21588;BME280;10956;48.878;13.316;2023-01-26T08:16:41;94305.44;;;-0.38;100.00
21588;BME280;10956;48.878;13.316;2023-01-26T08:19:07;94304.25;;;-0.35;100.00
21588;BME280;10956;48.878;13.316;2023-01-26T08:21:32;94306.25;;;-0.30;100.00
21588;BME280;10956;48.878;13.316;2023-01-26T08:23:58;94305.06;;;-0.28;100.00
21588;BME280;10956;48.878;13.316;2023-01-26T08:26:26;94302.66;;;-0.29;100.00
21588;BME280;10956;48.878;13.316;2023-01-26T08:28:51;94308.25;;;-0.19;100.00
21588;BME280;10956;48.878;13.316;2023-01-26T08:31:18;94292.94;;;-0.14;100.00
21588;BME280;10956;48.878;13.316;2023-01-26T08:33:45;94303.50;;;-0.09;100.00
21588;BME280;10956;48.878;13.316;2023-01-26T08:36:13;94294.91;;;-0.10;100.00
21588;BME280;10956;48.878;13.316;2023-01-26T08:38:40;94285.94;;;-0.14;100.00
21588;BME280;10956;48.878;13.316;2023-01-26T08:41:06;94296.13;;;-0.12;100.00
21588;BME280;10956;48.878;13.316;2023-01-26T08:43:32;94290.72;;;-0.17;100.00
21588;BME280;10956;48.878;13.316;2023-01-26T08:45:57;94289.13;;;-0.18;100.00
21588;BME280;10956;48.878;13.316;2023-01-26T08:48:23;94286.34;;;-0.23;100.00
21588;BME280;10956;48.878;13.316;2023-01-26T08:50:53;94292.72;;;-0.26;100.00
21588;BME280;10956;48.878;13.316;2023-01-26T08:53:19;94300.09;;;-0.23;100.00
21588;BME280;10956;48.878;13.316;2023-01-26T08:55:44;94288.34;;;-0.19;100.00
21588;BME280;10956;48.878;13.316;2023-01-26T08:58:10;94284.38;;;-0.08;100.00
21588;BME280;10956;48.878;13.316;2023-01-26T09:00:35;94287.38;;;0.02;100.00
21588;BME280;10956;48.878;13.316;2023-01-26T09:03:03;94276.00;;;0.10;100.00
21588;BME280;10956;48.878;13.316;2023-01-26T09:05:36;94278.78;;;0.08;100.00
21588;BME280;10956;48.878;13.316;2023-01-26T09:08:03;94276.59;;;0.12;100.00
21588;BME280;10956;48.878;13.316;2023-01-26T09:10:29;94281.97;;;0.10;100.00
21588;BME280;10956;48.878;13.316;2023-01-26T09:12:59;94274.00;;;0.18;100.00
21588;BME280;10956;48.878;13.316;2023-01-26T09:15:25;94273.22;;;0.24;100.00
21588;BME280;10956;48.878;13.316;2023-01-26T09:17:51;94287.16;;;0.23;100.00
21588;BME280;10956;48.878;13.316;2023-01-26T09:20:17;94283.59;;;0.11;100.00
21588;BME280;10956;48.878;13.316;2023-01-26T09:22:44;94276.81;;;0.10;100.00
21588;BME280;10956;48.878;13.316;2023-01-26T09:25:09;94267.63;;;0.14;100.00
21588;BME280;10956;48.878;13.316;2023-01-26T09:27:35;94278.41;;;0.11;100.00
21588;BME280;10956;48.878;13.316;2023-01-26T09:30:01;94278.00;;;0.14;100.00
21588;BME280;10956;48.878;13.316;2023-01-26T09:32:27;94270.44;;;0.13;100.00
21588;BME280;10956;48.878;13.316;2023-01-26T09:34:54;94276.22;;;0.15;100.00
21588;BME280;10956;48.878;13.316;2023-01-26T09:37:20;94277.59;;;0.17;100.00
21588;BME280;10956;48.878;13.316;2023-01-26T09:39:45;94281.19;;;0.16;100.00
21588;BME280;10956;48.878;13.316;2023-01-26T09:44:48;94286.19;;;0.24;100.00
21588;BME280;10956;48.878;13.316;2023-01-26T09:47:25;94289.97;;;0.28;100.00
21588;BME280;10956;48.878;13.316;2023-01-26T09:50:02;94288.16;;;0.36;100.00
21588;BME280;10956;48.878;13.316;2023-01-26T09:52:34;94297.34;;;0.31;100.00
21588;BME280;10956;48.878;13.316;2023-01-26T09:55:05;94291.97;;;0.26;100.00
21588;BME280;10956;48.878;13.316;2023-01-26T09:57:35;94282.19;;;0.22;100.00
21588;BME280;10956;48.878;13.316;2023-01-26T10:00:30;94276.00;;;0.16;100.00
21588;BME280;10956;48.878;13.316;2023-01-26T10:05:43;94273.22;;;0.24;100.00
21588;BME280;10956;48.878;13.316;2023-01-26T10:08:11;94275.59;;;0.32;100.00
21588;BME280;10956;48.878;13.316;2023-01-26T10:11:01;94280.00;;;0.32;100.00
21588;BME280;10956;48.878;13.316;2023-01-26T10:13:25;94287.97;;;0.30;100.00
21588;BME280;10956;48.878;13.316;2023-01-26T10:15:56;94280.19;;;0.17;100.00
21588;BME280;10956;48.878;13.316;2023-01-26T10:18:30;94272.22;;;0.25;100.00
21588;BME280;10956;48.878;13.316;2023-01-26T10:20:59;94269.44;;;0.20;100.00
21588;BME280;10956;48.878;13.316;2023-01-26T10:23:33;94259.06;;;0.20;100.00
21588;BME280;10956;48.878;13.316;2023-01-26T10:26:19;94262.44;;;0.14;100.00
21588;BME280;10956;48.878;13.316;2023-01-26T10:28:47;94261.66;;;0.20;100.00
21588;BME280;10956;48.878;13.316;2023-01-26T10:31:15;94262.44;;;0.14;100.00
21588;BME280;10956;48.878;13.316;2023-01-26T10:33:53;94247.69;;;0.21;100.00
21588;BME280;10956;48.878;13.316;2023-01-26T10:36:19;94249.88;;;0.24;100.00
21588;BME280;10956;48.878;13.316;2023-01-26T10:38:46;94250.47;;;0.26;100.00
21588;BME280;10956;48.878;13.316;2023-01-26T10:43:42;94248.09;;;0.31;100.00
21588;BME280;10956;48.878;13.316;2023-01-26T10:46:37;94242.09;;;0.38;100.00
21588;BME280;10956;48.878;13.316;2023-01-26T10:51:40;94237.31;;;0.35;100.00
21588;BME280;10956;48.878;13.316;2023-01-26T10:56:43;94242.09;;;0.31;100.00
21588;BME280;10956;48.878;13.316;2023-01-26T10:59:09;94242.50;;;0.35;100.00
21588;BME280;10956;48.878;13.316;2023-01-26T11:02:16;94246.09;;;0.40;100.00
21588;BME280;10956;48.878;13.316;2023-01-26T11:07:39;94237.66;;;0.58;100.00
21588;BME280;10956;48.878;13.316;2023-01-26T11:10:36;94233.28;;;0.58;100.00
21588;BME280;10956;48.878;13.316;2023-01-26T11:15:39;94238.88;;;0.62;100.00
21588;BME280;10956;48.878;13.316;2023-01-26T11:18:21;94232.50;;;0.58;100.00
21588;BME280;10956;48.878;13.316;2023-01-26T11:20:55;94232.50;;;0.51;100.00
21588;BME280;10956;48.878;13.316;2023-01-26T11:36:38;94231.72;;;0.51;100.00
21588;BME280;10956;48.878;13.316;2023-01-26T11:39:30;94230.50;;;0.47;100.00
21588;BME280;10956;48.878;13.316;2023-01-26T11:50:40;94216.75;;;0.53;100.00
21588;BME280;10956;48.878;13.316;2023-01-26T11:58:59;94213.72;;;0.62;100.00
21588;BME280;10956;48.878;13.316;2023-01-26T12:02:03;94203.78;;;0.53;100.00
21588;BME280;10956;48.878;13.316;2023-01-26T12:04:33;94207.38;;;0.45;100.00
21588;BME280;10956;48.878;13.316;2023-01-26T12:07:08;94205.00;;;0.44;100.00
21588;BME280;10956;48.878;13.316;2023-01-26T12:09:42;94204.78;;;0.45;100.00
21588;BME280;10956;48.878;13.316;2023-01-26T12:15:01;94198.44;;;0.28;100.00
21588;BME280;10956;48.878;13.316;2023-01-26T12:17:38;94191.06;;;0.25;100.00
21588;BME280;10956;48.878;13.316;2023-01-26T12:22:48;94182.69;;;0.29;100.00
21588;BME280;10956;48.878;13.316;2023-01-26T12:25:33;94174.72;;;0.24;100.00
21588;BME280;10956;48.878;13.316;2023-01-26T12:28:10;94184.28;;;0.30;100.00
21588;BME280;10956;48.878;13.316;2023-01-26T12:30:46;94167.53;;;0.26;100.00
21588;BME280;10956;48.878;13.316;2023-01-26T12:33:14;94174.72;;;0.24;100.00
21588;BME280;10956;48.878;13.316;2023-01-26T12:35:49;94164.78;;;0.21;100.00
21588;BME280;10956;48.878;13.316;2023-01-26T12:38:41;94175.53;;;0.25;100.00
21588;BME280;10956;48.878;13.316;2023-01-26T12:41:14;94168.16;;;0.28;100.00
21588;BME280;10956;48.878;13.316;2023-01-26T12:46:44;94164.34;;;0.31;100.00
21588;BME280;10956;48.878;13.316;2023-01-26T12:49:17;94175.91;;;0.28;100.00
21588;BME280;10956;48.878;13.316;2023-01-26T12:51:59;94177.72;;;0.28;100.00
21588;BME280;10956;48.878;13.316;2023-01-26T12:54:42;94172.31;;;0.29;100.00
21588;BME280;10956;48.878;13.316;2023-01-26T12:57:13;94173.50;;;0.34;100.00
21588;BME280;10956;48.878;13.316;2023-01-26T12:59:41;94170.94;;;0.27;100.00
21588;BME280;10956;48.878;13.316;2023-01-26T13:02:28;94174.72;;;0.31;100.00
21588;BME280;10956;48.878;13.316;2023-01-26T13:04:56;94164.75;;;0.35;100.00
21588;BME280;10956;48.878;13.316;2023-01-26T13:07:36;94155.13;;;0.48;100.00
21588;BME280;10956;48.878;13.316;2023-01-26T13:12:48;94157.09;;;0.53;100.00
21588;BME280;10956;48.878;13.316;2023-01-26T13:15:16;94157.91;;;0.47;100.00
21588;BME280;10956;48.878;13.316;2023-01-26T13:17:52;94149.56;;;0.45;100.00
21588;BME280;10956;48.878;13.316;2023-01-26T13:22:47;94148.53;;;0.52;100.00
21588;BME280;10956;48.878;13.316;2023-01-26T13:25:17;94145.16;;;0.52;100.00
21588;BME280;10956;48.878;13.316;2023-01-26T13:27:55;94149.34;;;0.46;100.00
21588;BME280;10956;48.878;13.316;2023-01-26T13:35:12;94138.03;;;0.27;100.00
21588;BME280;10956;48.878;13.316;2023-01-26T13:40:20;94150.41;;;0.25;100.00
21588;BME280;10956;48.878;13.316;2023-01-26T13:43:02;94142.03;;;0.23;100.00
21588;BME280;10956;48.878;13.316;2023-01-26T13:45:42;94150.00;;;0.22;100.00
21588;BME280;10956;48.878;13.316;2023-01-26T13:48:19;94141.66;;;0.13;100.00
21588;BME280;10956;48.878;13.316;2023-01-26T13:50:49;94146.47;;;0.03;100.00
21588;BME280;10956;48.878;13.316;2023-01-26T13:53:35;94154.44;;;-0.05;100.00
21588;BME280;10956;48.878;13.316;2023-01-26T13:56:05;94155.84;;;-0.09;100.00
21588;BME280;10956;48.878;13.316;2023-01-26T13:58:32;94152.84;;;-0.13;100.00
21588;BME280;10956;48.878;13.316;2023-01-26T14:01:03;94155.66;;;-0.14;100.00
21588;BME280;10956;48.878;13.316;2023-01-26T14:03:30;94155.06;;;-0.16;100.00
21588;BME280;10956;48.878;13.316;2023-01-26T14:08:30;94156.44;;;-0.20;100.00
21588;BME280;10956;48.878;13.316;2023-01-26T14:10:58;94156.84;;;-0.17;100.00
21588;BME280;10956;48.878;13.316;2023-01-26T14:13:36;94153.66;;;-0.12;100.00